createdAt,value
2019-01-29T00:02:18.352Z,-0.30
2019-01-29T00:07:47.644Z,-0.20
2019-01-29T00:13:16.988Z,-0.20
2019-01-29T00:18:48.236Z,-0.30
2019-01-29T00:24:17.513Z,-0.20
2019-01-29T00:29:48.934Z,-0.20
2019-01-29T00:35:18.303Z,-0.20
2019-01-29T00:40:48.572Z,-0.10
2019-01-29T00:46:17.835Z,-0.10
2019-01-29T00:51:47.129Z,-0.10
2019-01-29T00:57:16.403Z,-0.10
2019-01-29T01:02:45.681Z,-0.20
2019-01-29T01:08:14.984Z,-0.20
2019-01-29T01:13:46.406Z,-0.30
2019-01-29T01:19:15.677Z,-0.40
2019-01-29T01:24:44.952Z,-0.50
2019-01-29T01:30:17.539Z,-0.60
2019-01-29T01:35:46.880Z,-0.60
2019-01-29T01:41:16.593Z,-0.60
2019-01-29T01:46:46.117Z,-0.60
2019-01-29T01:52:15.373Z,-0.70
2019-01-29T01:57:44.648Z,-0.70
2019-01-29T02:03:20.288Z,-0.80
2019-01-29T02:08:49.569Z,-0.80
2019-01-29T02:14:18.851Z,-0.90
2019-01-29T02:19:49.139Z,-0.90
2019-01-29T02:25:18.402Z,-1.00
2019-01-29T02:30:47.676Z,-1.00
2019-01-29T02:36:16.966Z,-1.00
2019-01-29T02:41:46.249Z,-1.00
2019-01-29T02:47:15.511Z,-1.00
2019-01-29T02:52:46.789Z,-1.00
2019-01-29T02:58:16.073Z,-1.00
2019-01-29T03:03:45.355Z,-0.90
2019-01-29T03:09:14.634Z,-0.90
2019-01-29T03:14:43.995Z,-0.90
2019-01-29T03:20:15.573Z,-0.80
2019-01-29T03:25:45.870Z,-0.80
2019-01-29T03:31:15.161Z,-0.80
2019-01-29T03:36:44.420Z,-0.90
2019-01-29T03:42:14.781Z,-0.90
2019-01-29T03:47:44.292Z,-1.00
2019-01-29T03:53:20.749Z,-1.00
2019-01-29T03:58:50.024Z,-1.00
2019-01-29T04:04:19.293Z,-1.00
2019-01-29T04:09:51.713Z,-0.90
2019-01-29T04:15:23.277Z,-0.90
2019-01-29T04:20:52.546Z,-0.90
2019-01-29T04:26:21.844Z,-0.80
2019-01-29T04:31:51.114Z,-0.80
2019-01-29T04:37:26.330Z,-0.80
2019-01-29T04:42:58.043Z,-0.80
2019-01-29T04:48:27.312Z,-0.80
2019-01-29T04:53:57.778Z,-0.80
2019-01-29T04:59:27.161Z,-0.80
2019-01-29T05:04:56.455Z,-0.80
2019-01-29T05:10:25.873Z,-0.80
2019-01-29T05:15:55.815Z,-0.80
2019-01-29T05:21:25.293Z,-0.70
2019-01-29T05:26:54.572Z,-0.70
2019-01-29T05:32:24.936Z,-0.80
2019-01-29T05:37:55.755Z,-0.80
2019-01-29T05:43:44.504Z,-0.80
2019-01-29T05:49:14.044Z,-0.80
2019-01-29T05:54:43.984Z,-0.80
2019-01-29T06:00:29.465Z,-0.80
2019-01-29T06:05:59.007Z,-0.80
2019-01-29T06:11:28.434Z,-0.80
2019-01-29T06:16:57.913Z,-0.80
2019-01-29T06:22:27.441Z,-0.80
2019-01-29T06:27:57.008Z,-0.80
2019-01-29T06:33:26.860Z,-0.80
2019-01-29T06:38:56.429Z,-0.70
2019-01-29T06:44:26.108Z,-0.70
2019-01-29T06:49:55.585Z,-0.70
2019-01-29T06:55:26.383Z,-0.70
2019-01-29T07:00:56.070Z,-0.60
2019-01-29T07:06:25.577Z,-0.60
2019-01-29T07:12:00.621Z,-0.60
2019-01-29T07:17:30.949Z,-0.50
2019-01-29T07:23:00.489Z,-0.50
2019-01-29T07:28:30.069Z,-0.50
2019-01-29T07:33:59.724Z,-0.50
2019-01-29T07:39:29.470Z,-0.40
2019-01-29T07:44:59.030Z,-0.40
2019-01-29T07:50:28.758Z,-0.30
2019-01-29T07:55:58.294Z,-0.30
2019-01-29T08:01:27.866Z,-0.20
2019-01-29T08:06:57.502Z,-0.10
2019-01-29T08:12:27.083Z,0.00
2019-01-29T08:17:56.670Z,0.10
2019-01-29T08:23:25.991Z,0.10
2019-01-29T08:28:55.742Z,0.10
2019-01-29T08:34:25.347Z,0.20
2019-01-29T08:39:54.942Z,0.20
2019-01-29T08:45:24.610Z,0.30
2019-01-29T08:50:54.340Z,0.30
2019-01-29T08:56:24.257Z,0.40
2019-01-29T09:01:54.306Z,0.60
2019-01-29T09:07:23.923Z,0.70
2019-01-29T09:12:53.568Z,0.50
2019-01-29T09:18:23.016Z,0.40
2019-01-29T09:23:52.380Z,0.40
2019-01-29T09:29:21.756Z,0.30
2019-01-29T09:34:52.160Z,0.20
2019-01-29T09:40:23.698Z,0.20
2019-01-29T09:45:53.475Z,0.20
2019-01-29T09:51:24.149Z,0.10
2019-01-29T09:56:53.672Z,0.10
2019-01-29T10:02:23.249Z,0.40
2019-01-29T10:07:52.908Z,0.70
2019-01-29T10:13:22.506Z,0.90
2019-01-29T10:18:52.174Z,1.20
2019-01-29T10:24:21.708Z,1.40
2019-01-29T10:29:51.095Z,1.50
2019-01-29T10:35:24.429Z,1.70
2019-01-29T10:40:54.049Z,2.20
2019-01-29T10:46:23.523Z,2.50
2019-01-29T10:51:53.073Z,2.50
2019-01-29T10:57:23.482Z,2.60
2019-01-29T11:02:55.584Z,3.00
2019-01-29T11:08:25.125Z,3.20
2019-01-29T11:13:54.674Z,3.20
2019-01-29T11:19:24.549Z,3.40
2019-01-29T11:24:54.133Z,3.00
2019-01-29T11:30:32.160Z,2.80
2019-01-29T11:36:01.622Z,2.80
2019-01-29T11:41:31.086Z,2.60
2019-01-29T11:47:00.504Z,2.40
2019-01-29T11:52:29.972Z,2.20
2019-01-29T11:57:59.544Z,2.40
2019-01-29T12:03:29.158Z,2.80
2019-01-29T12:08:58.664Z,3.30
2019-01-29T12:14:28.100Z,3.50
2019-01-29T12:19:57.893Z,3.40
2019-01-29T12:25:27.330Z,3.10
2019-01-29T12:30:56.839Z,2.90
2019-01-29T12:36:26.397Z,2.80
2019-01-29T12:41:55.957Z,2.90
2019-01-29T12:47:25.483Z,2.80
2019-01-29T12:52:56.639Z,2.80
2019-01-29T12:58:26.140Z,2.60
2019-01-29T13:03:55.649Z,2.60
2019-01-29T13:09:25.172Z,2.70
2019-01-29T13:14:54.506Z,2.80
2019-01-29T13:20:24.986Z,3.10
2019-01-29T13:25:54.500Z,3.30
2019-01-29T13:31:23.891Z,3.40
2019-01-29T13:36:53.430Z,3.60
2019-01-29T13:42:22.905Z,3.80
2019-01-29T13:47:52.392Z,4.00
2019-01-29T13:53:21.807Z,4.50
2019-01-29T13:58:51.333Z,5.00
2019-01-29T14:04:20.648Z,6.10
2019-01-29T14:09:50.346Z,7.40
2019-01-29T14:15:29.683Z,8.60
2019-01-29T14:20:59.473Z,9.60
2019-01-29T14:26:28.923Z,10.00
2019-01-29T14:31:58.406Z,10.60
2019-01-29T14:37:27.773Z,11.00
2019-01-29T14:42:57.239Z,10.40
2019-01-29T14:48:26.747Z,9.20
2019-01-29T14:53:56.351Z,8.10
2019-01-29T14:59:25.879Z,8.70
2019-01-29T15:04:55.313Z,9.70
2019-01-29T15:10:28.317Z,10.20
2019-01-29T15:16:01.931Z,9.70
2019-01-29T15:21:37.797Z,8.70
2019-01-29T15:27:05.711Z,7.80
2019-01-29T15:32:33.641Z,7.10
2019-01-29T15:38:03.042Z,5.70
2019-01-29T15:43:32.324Z,4.50
2019-01-29T15:49:04.062Z,3.70
2019-01-29T15:54:33.355Z,3.00
2019-01-29T16:00:03.268Z,2.40
2019-01-29T16:05:40.741Z,2.00
2019-01-29T16:11:10.128Z,1.70
2019-01-29T16:16:39.601Z,1.30
2019-01-29T16:22:08.948Z,1.00
2019-01-29T16:27:38.549Z,0.80
2019-01-29T16:33:08.317Z,0.60
2019-01-29T16:38:37.720Z,0.40
2019-01-29T16:44:07.140Z,0.30
2019-01-29T16:49:36.458Z,0.10
2019-01-29T16:55:10.702Z,0.00
2019-01-29T17:00:43.018Z,-0.20
2019-01-29T17:06:12.693Z,-0.30
2019-01-29T17:11:42.009Z,-0.40
2019-01-29T17:17:14.099Z,-0.50
2019-01-29T17:22:43.762Z,-0.60
2019-01-29T17:28:13.415Z,-0.70
2019-01-29T17:33:44.799Z,-0.80
2019-01-29T17:39:14.284Z,-0.90
2019-01-29T17:44:55.995Z,-1.00
2019-01-29T17:50:29.825Z,-1.10
2019-01-29T17:55:59.457Z,-1.20
2019-01-29T18:01:29.000Z,-1.20
2019-01-29T18:06:58.479Z,-1.40
2019-01-29T18:12:28.128Z,-1.40
2019-01-29T18:17:58.766Z,-1.50
2019-01-29T18:23:29.099Z,-1.60
2019-01-29T18:28:58.479Z,-1.60
2019-01-29T18:34:28.051Z,-1.70
2019-01-29T18:39:57.598Z,-1.70
2019-01-29T18:45:48.425Z,-1.80
2019-01-29T18:51:20.478Z,-1.80
2019-01-29T18:56:49.280Z,-1.80
2019-01-29T19:02:18.568Z,-1.90
2019-01-29T19:07:47.959Z,-1.90
2019-01-29T19:13:17.243Z,-2.00
2019-01-29T19:18:46.507Z,-2.00
2019-01-29T19:24:15.803Z,-2.00
2019-01-29T19:29:45.075Z,-2.00
2019-01-29T19:35:14.430Z,-2.00
2019-01-29T19:40:43.767Z,-2.10
2019-01-29T19:46:13.048Z,-2.10
2019-01-29T19:51:42.410Z,-2.20
2019-01-29T19:57:11.725Z,-2.20
2019-01-29T20:02:41.089Z,-2.20
2019-01-29T20:08:10.472Z,-2.20
2019-01-29T20:13:39.825Z,-2.30
2019-01-29T20:19:09.093Z,-2.30
2019-01-29T20:24:38.374Z,-2.40
2019-01-29T20:30:21.694Z,-2.40
2019-01-29T20:35:51.073Z,-2.50
2019-01-29T20:41:20.438Z,-2.50
2019-01-29T20:46:49.796Z,-2.60
2019-01-29T20:52:19.389Z,-2.60
2019-01-29T20:57:48.981Z,-2.60
2019-01-29T21:03:20.207Z,-2.70
2019-01-29T21:08:49.554Z,-2.70
2019-01-29T21:14:18.844Z,-2.70
2019-01-29T21:19:48.149Z,-2.70
2019-01-29T21:25:17.525Z,-2.80
2019-01-29T21:30:46.949Z,-2.80
2019-01-29T21:36:16.246Z,-2.90
2019-01-29T21:41:45.529Z,-2.90
2019-01-29T21:47:14.811Z,-2.70
2019-01-29T21:52:44.169Z,-2.70
2019-01-29T21:58:16.391Z,-2.80
2019-01-29T22:03:45.703Z,-2.90
2019-01-29T22:09:15.511Z,-3.00
2019-01-29T22:14:44.778Z,-3.00
2019-01-29T22:20:20.477Z,-3.10
2019-01-29T22:25:49.979Z,-3.20
2019-01-29T22:31:19.346Z,-3.20
2019-01-29T22:36:48.778Z,-3.30
2019-01-29T22:42:18.082Z,-3.30
2019-01-29T22:47:47.626Z,-3.40
2019-01-29T22:53:17.952Z,-3.40
2019-01-29T22:58:47.264Z,-3.50
2019-01-29T23:04:16.607Z,-3.50
2019-01-29T23:09:46.851Z,-3.50
2019-01-29T23:15:20.071Z,-3.60
2019-01-29T23:20:49.362Z,-3.60
2019-01-29T23:26:18.710Z,-3.70
2019-01-29T23:31:47.928Z,-3.80
2019-01-29T23:37:17.289Z,-3.80
2019-01-29T23:42:46.538Z,-3.80
2019-01-29T23:48:16.082Z,-3.90
2019-01-29T23:53:45.391Z,-4.00
2019-01-29T23:59:14.665Z,-4.00
